Time;durP1;ratioP1;P1;durP2;ratioP2;P2;SDS_P1;SDS_P2;PMS_P1;PMS_P2;Temp;Humidity;BMP_temperature;BMP_pressure;BME280_temperature;BME280_humidity;BME280_pressure;Samples;Min_cycle;Max_cycle;Signal;HPM_P1;HPM_P2
2022/10/28 00:02:47;;;;;;;1.77;0.80;;;22.20;52.40;;;;;;20587919;28;20069;-79
2022/10/28 00:12:48;;;;;;;3.45;0.75;;;22.10;52.50;;;;;;20582852;28;20117;-78
2022/10/28 00:22:48;;;;;;;1.43;0.60;;;22.10;52.60;;;;;;20614336;28;20475;-78
2022/10/28 00:32:49;;;;;;;1.13;0.97;;;22.00;52.70;;;;;;20580924;28;20035;-78
2022/10/28 00:42:50;;;;;;;0.63;0.40;;;22.00;52.80;;;;;;20578269;28;20344;-78
2022/10/28 00:53:00;;;;;;;1.67;1.10;;;22.00;52.90;;;;;;20601190;28;20070;-78
2022/10/28 01:03:08;;;;;;;2.05;0.80;;;21.90;53.00;;;;;;20587542;28;20126;-78
2022/10/28 01:13:31;;;;;;;1.50;0.70;;;21.90;53.10;;;;;;20594066;28;20042;-78
2022/10/28 01:23:56;;;;;;;1.27;0.63;;;21.80;53.10;;;;;;20609177;28;20491;-78
2022/10/28 01:34:16;;;;;;;2.60;0.90;;;21.80;53.30;;;;;;20590694;28;20034;-78
2022/10/28 01:44:44;;;;;;;2.08;0.70;;;21.70;53.30;;;;;;20596713;28;20038;-77
2022/10/28 01:54:47;;;;;;;2.33;0.88;;;21.70;53.40;;;;;;20616657;28;20039;-78
2022/10/28 02:04:48;;;;;;;1.63;0.80;;;21.60;53.40;;;;;;20976604;23;20385;-79
2022/10/28 02:15:03;;;;;;;1.13;0.52;;;21.60;53.60;;;;;;20653432;28;20038;-78
2022/10/28 02:25:20;;;;;;;0.57;0.50;;;21.60;53.70;;;;;;20673903;28;20369;-78
2022/10/28 02:35:34;;;;;;;1.30;0.60;;;21.50;53.70;;;;;;20669592;28;20468;-77
2022/10/28 02:45:40;;;;;;;1.73;0.70;;;21.50;53.90;;;;;;20657473;28;20049;-78
2022/10/28 02:55:42;;;;;;;1.63;0.60;;;21.50;53.90;;;;;;20659337;28;20089;-78
2022/10/28 03:05:44;;;;;;;1.50;0.50;;;21.40;53.90;;;;;;20675669;28;20042;-78
2022/10/28 03:15:46;;;;;;;1.15;0.80;;;21.40;54.00;;;;;;20683061;28;20535;-78
2022/10/28 03:25:46;;;;;;;0.60;0.40;;;21.40;54.20;;;;;;20638423;28;20096;-79
2022/10/28 03:35:47;;;;;;;0.85;0.60;;;21.30;54.90;;;;;;20676197;28;20448;-78
2022/10/28 03:45:48;;;;;;;1.30;0.70;;;21.40;54.30;;;;;;20714699;28;20414;-77
2022/10/28 03:55:56;;;;;;;1.50;0.70;;;21.30;54.30;;;;;;20707288;28;20289;-78
2022/10/28 04:05:58;;;;;;;1.83;0.57;;;21.30;54.40;;;;;;20688856;28;20880;-78
2022/10/28 04:16:00;;;;;;;1.83;0.90;;;21.30;54.50;;;;;;20729672;28;20081;-78
2022/10/28 04:26:03;;;;;;;0.90;0.60;;;21.20;54.50;;;;;;20682946;28;20050;-78
2022/10/28 04:36:04;;;;;;;1.88;0.80;;;21.20;54.70;;;;;;20692681;28;20110;-78
2022/10/28 04:46:05;;;;;;;0.88;0.52;;;21.10;54.70;;;;;;20692494;28;20076;-78
2022/10/28 04:56:06;;;;;;;1.05;0.60;;;21.10;54.80;;;;;;20694064;28;20133;-77
2022/10/28 05:06:06;;;;;;;2.92;0.82;;;21.10;55.00;;;;;;20670504;28;20799;-78
2022/10/28 05:16:08;;;;;;;0.90;0.80;;;21.00;55.00;;;;;;20644967;28;20042;-78
2022/10/28 05:26:12;;;;;;;2.80;0.55;;;21.00;55.10;;;;;;20651345;28;20053;-78
2022/10/28 05:36:14;;;;;;;3.67;0.60;;;21.00;55.20;;;;;;20677841;28;20037;-78
2022/10/28 05:46:15;;;;;;;1.00;0.60;;;20.90;55.30;;;;;;20683470;28;20064;-77
2022/10/28 05:56:22;;;;;;;1.63;0.80;;;20.90;55.40;;;;;;20668158;28;20054;-79
2022/10/28 06:06:24;;;;;;;1.40;0.60;;;20.90;55.50;;;;;;20677208;28;20289;-78
2022/10/28 06:16:29;;;;;;;1.67;0.70;;;20.90;55.60;;;;;;20679353;28;20038;-77
2022/10/28 06:26:30;;;;;;;0.60;0.60;;;20.80;55.60;;;;;;20663033;28;20044;-77
2022/10/28 06:36:31;;;;;;;2.42;0.75;;;20.80;55.70;;;;;;20683153;28;20527;-79
2022/10/28 06:46:33;;;;;;;0.77;0.52;;;20.80;55.80;;;;;;20690656;28;20054;-74
2022/10/28 06:56:33;;;;;;;1.50;0.77;;;20.70;56.00;;;;;;20697570;28;20045;-74
2022/10/28 07:06:35;;;;;;;1.60;0.52;;;20.70;55.80;;;;;;20645686;28;20136;-73
2022/10/28 07:16:36;;;;;;;1.75;0.70;;;20.70;55.80;;;;;;20650564;28;20129;-73
2022/10/28 07:26:37;;;;;;;2.13;0.88;;;20.70;55.80;;;;;;20648720;28;20085;-75
2022/10/28 07:36:37;;;;;;;1.03;0.70;;;20.60;55.80;;;;;;20649932;28;20046;-73
2022/10/28 07:46:38;;;;;;;6.07;1.15;;;20.60;55.80;;;;;;20663309;28;20130;-75
2022/10/28 07:56:38;;;;;;;2.50;0.70;;;20.50;56.10;;;;;;20663650;28;20129;-75
2022/10/28 08:06:39;;;;;;;4.07;1.37;;;20.50;56.40;;;;;;20648795;28;20154;-76
2022/10/28 08:16:39;;;;;;;5.93;1.20;;;20.50;56.90;;;;;;20664796;28;20289;-74
2022/10/28 08:26:40;;;;;;;4.07;1.67;;;20.50;57.20;;;;;;20659804;28;20121;-74
2022/10/28 08:36:41;;;;;;;2.00;1.10;;;20.60;57.30;;;;;;20654686;28;20128;-74
2022/10/28 08:46:54;;;;;;;2.93;1.37;;;20.50;57.30;;;;;;20681466;28;20042;-75
2022/10/28 08:56:56;;;;;;;4.05;1.00;;;20.60;57.50;;;;;;20677432;28;20391;-74
2022/10/28 09:06:56;;;;;;;6.30;1.80;;;20.60;57.40;;;;;;20661377;28;20042;-74
2022/10/28 09:17:31;;;;;;;6.53;1.80;;;20.70;58.00;;;;;;20682302;28;20050;-76
2022/10/28 09:28:06;;;;;;;11.13;1.73;;;20.70;58.40;;;;;;20657271;28;20407;-75
2022/10/28 09:38:11;;;;;;;5.30;1.25;;;20.80;58.50;;;;;;20672181;28;20042;-76
2022/10/28 09:48:39;;;;;;;6.05;1.67;;;20.80;58.40;;;;;;20653314;28;20373;-75
2022/10/28 09:58:42;;;;;;;7.20;1.40;;;20.90;58.20;;;;;;20697631;28;20042;-75
2022/10/28 10:08:44;;;;;;;8.85;2.70;;;21.10;57.90;;;;;;20650748;28;20034;-73
2022/10/28 10:18:50;;;;;;;4.72;1.60;;;21.30;58.20;;;;;;20646476;28;20044;-74
2022/10/28 10:28:51;;;;;;;7.65;2.00;;;21.40;58.60;;;;;;20659718;28;20048;-74
2022/10/28 10:38:53;;;;;;;7.85;3.10;;;21.30;58.20;;;;;;20655730;28;20377;-77
2022/10/28 10:49:14;;;;;;;3.13;1.33;;;21.40;58.20;;;;;;20672697;28;20038;-75
2022/10/28 10:59:28;;;;;;;9.95;1.88;;;21.50;57.80;;;;;;20654145;28;20038;-74
2022/10/28 11:09:36;;;;;;;9.45;2.15;;;21.70;57.30;;;;;;20646211;28;20407;-74
2022/10/28 11:19:36;;;;;;;7.32;2.22;;;21.90;57.10;;;;;;20643784;28;20044;-75
2022/10/28 11:29:37;;;;;;;7.05;1.83;;;22.10;56.90;;;;;;20659700;28;20452;-74
2022/10/28 11:39:57;;;;;;;5.45;1.90;;;22.20;56.80;;;;;;20656499;28;20622;-75
2022/10/28 11:50:27;;;;;;;3.97;1.88;;;22.30;56.30;;;;;;20648879;28;20169;-74
2022/10/28 12:01:02;;;;;;;5.50;1.83;;;22.40;55.80;;;;;;20670033;28;20034;-74
2022/10/28 12:11:32;;;;;;;9.10;2.27;;;22.70;55.80;;;;;;20689036;28;20117;-74
2022/10/28 12:21:55;;;;;;;5.50;2.45;;;22.80;55.40;;;;;;20691054;28;20633;-74
2022/10/28 12:31:59;;;;;;;11.30;2.40;;;22.90;55.10;;;;;;20698149;28;20049;-74
2022/10/28 12:42:26;;;;;;;7.38;1.50;;;22.70;55.20;;;;;;20670446;28;20041;-75
2022/10/28 12:52:53;;;;;;;4.13;1.80;;;22.10;56.20;;;;;;20705303;28;20038;-75
2022/10/28 13:03:06;;;;;;;5.25;2.25;;;21.60;57.40;;;;;;20696350;28;20076;-77
2022/10/28 13:13:25;;;;;;;10.23;2.33;;;21.20;58.50;;;;;;20699463;28;20129;-78
2022/10/28 13:23:51;;;;;;;9.80;2.22;;;21.30;59.30;;;;;;20687551;28;20040;-77
2022/10/28 13:33:53;;;;;;;6.97;2.10;;;21.50;60.10;;;;;;20680271;28;20042;-76
2022/10/28 13:43:55;;;;;;;5.05;1.95;;;21.60;60.30;;;;;;20673308;28;20049;-75
2022/10/28 13:53:55;;;;;;;12.13;2.60;;;21.60;60.50;;;;;;20648678;28;20153;-74
2022/10/28 14:03:56;;;;;;;7.55;2.22;;;21.40;60.90;;;;;;20671872;28;20138;-74
2022/10/28 14:14:01;;;;;;;6.38;2.08;;;21.40;61.10;;;;;;20679098;28;20389;-75
2022/10/28 14:24:12;;;;;;;4.50;2.00;;;21.30;61.40;;;;;;20664710;28;20489;-76
2022/10/28 14:34:13;;;;;;;12.77;2.90;;;21.10;61.40;;;;;;20670917;28;20046;-76
2022/10/28 14:44:38;;;;;;;5.53;2.13;;;21.00;61.50;;;;;;20649570;28;20037;-76
2022/10/28 14:54:44;;;;;;;4.78;2.00;;;20.90;61.60;;;;;;20652522;28;20038;-75
2022/10/28 15:04:47;;;;;;;4.47;1.58;;;20.90;61.50;;;;;;20678110;28;20079;-74
2022/10/28 15:14:52;;;;;;;4.90;2.38;;;20.80;61.50;;;;;;20695296;28;20395;-74
2022/10/28 15:25:08;;;;;;;8.35;2.25;;;20.80;61.60;;;;;;20689482;28;20427;-76
2022/10/28 15:35:28;;;;;;;4.93;1.60;;;20.70;61.50;;;;;;20627527;28;20674;-74
2022/10/28 15:45:30;;;;;;;3.80;1.75;;;20.70;61.60;;;;;;20648124;28;20034;-75
2022/10/28 15:55:31;;;;;;;4.85;1.83;;;20.70;61.70;;;;;;20655528;28;20104;-73
2022/10/28 16:05:31;;;;;;;3.38;1.92;;;20.70;61.70;;;;;;20647391;28;20488;-70
2022/10/28 16:15:32;;;;;;;4.05;1.45;;;20.70;61.80;;;;;;20664234;28;20042;-72
2022/10/28 16:25:33;;;;;;;5.10;1.90;;;20.60;61.70;;;;;;20657793;28;20424;-72
2022/10/28 16:35:33;;;;;;;3.53;1.45;;;20.60;61.80;;;;;;20632758;28;20290;-75
2022/10/28 16:45:34;;;;;;;2.00;1.10;;;20.60;61.70;;;;;;20673614;28;20113;-71
2022/10/28 16:55:35;;;;;;;3.72;1.30;;;20.60;61.70;;;;;;20677553;28;20030;-74
2022/10/28 17:05:35;;;;;;;2.78;1.48;;;20.60;61.70;;;;;;20674246;28;20377;-72
2022/10/28 17:15:36;;;;;;;4.88;1.75;;;20.50;61.70;;;;;;20685880;28;20038;-72
2022/10/28 17:25:37;;;;;;;2.92;1.40;;;20.40;61.70;;;;;;20659420;28;20065;-72
2022/10/28 17:35:37;;;;;;;2.28;1.25;;;20.40;61.70;;;;;;20667093;28;20038;-74
2022/10/28 17:45:38;;;;;;;5.25;1.45;;;20.40;61.60;;;;;;20687674;28;20053;-73
2022/10/28 17:55:40;;;;;;;2.60;1.23;;;20.40;61.80;;;;;;20655541;28;20045;-73
2022/10/28 18:05:41;;;;;;;3.80;1.30;;;20.40;61.60;;;;;;20678961;28;20074;-74
2022/10/28 18:15:42;;;;;;;5.53;1.70;;;20.40;61.60;;;;;;20648104;28;20088;-74
2022/10/28 18:25:42;;;;;;;2.88;1.27;;;20.40;61.70;;;;;;20678058;28;20036;-73
2022/10/28 18:35:43;;;;;;;1.37;1.00;;;20.30;61.60;;;;;;20629024;28;20046;-72
2022/10/28 18:45:44;;;;;;;5.37;0.87;;;20.40;61.70;;;;;;20649058;28;20731;-73
2022/10/28 18:55:44;;;;;;;2.67;1.10;;;20.30;61.60;;;;;;20652126;28;20133;-73
2022/10/28 19:05:46;;;;;;;5.07;1.10;;;20.30;61.60;;;;;;20642907;28;20359;-73
2022/10/28 19:15:47;;;;;;;2.58;1.38;;;20.20;61.60;;;;;;20647537;28;20034;-73
2022/10/28 19:25:57;;;;;;;2.58;1.00;;;20.30;61.70;;;;;;20663948;28;20092;-73
2022/10/28 19:36:04;;;;;;;1.77;0.95;;;20.30;61.70;;;;;;20619646;28;20432;-73
2022/10/28 19:46:09;;;;;;;1.17;0.90;;;20.20;61.70;;;;;;20682533;28;20069;-71
2022/10/28 19:56:10;;;;;;;1.02;0.70;;;20.20;61.70;;;;;;20682356;28;20037;-73
2022/10/28 20:06:12;;;;;;;1.80;1.00;;;20.10;61.70;;;;;;20684224;28;20481;-73
2022/10/28 20:16:13;;;;;;;2.60;1.15;;;20.10;61.70;;;;;;20682253;28;20168;-73
2022/10/28 20:26:14;;;;;;;4.20;1.30;;;20.10;61.80;;;;;;20663385;28;20109;-73
2022/10/28 20:36:22;;;;;;;1.65;1.00;;;20.10;61.80;;;;;;20671420;28;20042;-72
2022/10/28 20:46:23;;;;;;;1.85;1.00;;;20.10;61.90;;;;;;20642128;28;20495;-73
2022/10/28 20:56:25;;;;;;;2.90;1.52;;;20.10;61.90;;;;;;20653672;28;20038;-72
2022/10/28 21:06:26;;;;;;;3.00;1.00;;;20.10;62.00;;;;;;20673270;28;20480;-75
2022/10/28 21:16:27;;;;;;;2.78;1.13;;;20.00;62.00;;;;;;20685541;28;20088;-74
2022/10/28 21:26:28;;;;;;;4.07;1.13;;;20.00;62.00;;;;;;20662083;28;20477;-73
2022/10/28 21:36:29;;;;;;;1.63;0.77;;;20.00;62.00;;;;;;20667004;28;20034;-72
2022/10/28 21:46:30;;;;;;;2.30;1.10;;;20.00;62.10;;;;;;20661094;28;20476;-73
2022/10/28 21:56:30;;;;;;;1.63;1.02;;;20.00;62.10;;;;;;20677785;28;20038;-73
2022/10/28 22:06:31;;;;;;;2.78;1.38;;;20.00;62.20;;;;;;20696502;28;20026;-73
2022/10/28 22:16:33;;;;;;;3.58;1.40;;;19.90;62.20;;;;;;20654620;28;20053;-73
2022/10/28 22:26:33;;;;;;;2.45;1.40;;;19.90;62.30;;;;;;20648343;28;20026;-72
2022/10/28 22:36:34;;;;;;;6.07;1.37;;;19.90;62.40;;;;;;20669376;28;20077;-73
2022/10/28 22:46:35;;;;;;;6.18;2.30;;;19.90;62.50;;;;;;20688504;28;20335;-72
2022/10/28 22:56:37;;;;;;;3.10;1.63;;;19.90;62.60;;;;;;20628898;28;20473;-73
2022/10/28 23:06:37;;;;;;;5.53;1.77;;;19.90;62.60;;;;;;20676668;28;20034;-72
2022/10/28 23:16:38;;;;;;;4.72;1.70;;;19.90;62.70;;;;;;20664939;28;20030;-74
2022/10/28 23:26:39;;;;;;;3.10;1.75;;;19.90;62.90;;;;;;20664849;28;20056;-73
2022/10/28 23:36:39;;;;;;;5.50;1.25;;;19.90;63.00;;;;;;20651794;28;20046;-74
2022/10/28 23:46:40;;;;;;;6.50;1.88;;;19.80;63.10;;;;;;20664586;28;20040;-73
2022/10/28 23:56:41;;;;;;;6.17;1.60;;;19.80;63.10;;;;;;20660544;28;20100;-74
